sensor_id;sensor_type;location;lat;lon;timestamp;pressure;altitude;pressure_sealevel;temperature;humidity
63500;BME280;49654;51.142;14.924;2023-02-04T00:01:50;99110.81;;;3.44;86.18
63500;BME280;49654;51.142;14.924;2023-02-04T00:04:17;99189.41;;;3.66;85.92
63500;BME280;49654;51.142;14.924;2023-02-04T00:06:44;99232.53;;;3.72;85.71
63500;BME280;49654;51.142;14.924;2023-02-04T00:09:11;99228.50;;;3.80;85.09
63500;BME280;49654;51.142;14.924;2023-02-04T00:11:38;99235.94;;;3.73;84.23
63500;BME280;49654;51.142;14.924;2023-02-04T00:14:05;99255.22;;;3.67;83.76
63500;BME280;49654;51.142;14.924;2023-02-04T00:16:33;99263.63;;;3.69;84.02
63500;BME280;49654;51.142;14.924;2023-02-04T00:19:00;99265.06;;;3.62;82.98
63500;BME280;49654;51.142;14.924;2023-02-04T00:21:27;99276.06;;;3.74;83.68
63500;BME280;49654;51.142;14.924;2023-02-04T00:23:53;99273.13;;;3.79;82.33
63500;BME280;49654;51.142;14.924;2023-02-04T00:26:21;99283.88;;;3.72;81.47
63500;BME280;49654;51.142;14.924;2023-02-04T00:28:48;99285.72;;;3.82;81.65
63500;BME280;49654;51.142;14.924;2023-02-04T00:31:14;99286.56;;;3.61;81.86
63500;BME280;49654;51.142;14.924;2023-02-04T00:33:43;99297.78;;;3.60;81.40
63500;BME280;49654;51.142;14.924;2023-02-04T00:36:09;99248.56;;;3.13;81.44
63500;BME280;49654;51.142;14.924;2023-02-04T00:38:36;99318.38;;;3.49;81.21
63500;BME280;49654;51.142;14.924;2023-02-04T00:41:04;99325.41;;;3.47;80.29
63500;BME280;49654;51.142;14.924;2023-02-04T00:43:31;99316.22;;;3.33;79.60
63500;BME280;49654;51.142;14.924;2023-02-04T00:45:58;99343.84;;;3.41;80.29
63500;BME280;49654;51.142;14.924;2023-02-04T00:48:25;99353.28;;;3.51;80.41
63500;BME280;49654;51.142;14.924;2023-02-04T00:50:53;99360.47;;;3.58;81.04
63500;BME280;49654;51.142;14.924;2023-02-04T00:53:20;99361.34;;;3.15;82.28
63500;BME280;49654;51.142;14.924;2023-02-04T00:55:47;99384.88;;;3.20;83.96
63500;BME280;49654;51.142;14.924;2023-02-04T00:58:14;99382.53;;;2.96;83.66
63500;BME280;49654;51.142;14.924;2023-02-04T01:00:41;99399.53;;;2.97;85.04
63500;BME280;49654;51.142;14.924;2023-02-04T01:03:08;99354.59;;;2.59;84.73
63500;BME280;49654;51.142;14.924;2023-02-04T01:05:35;99416.31;;;3.01;85.37
63500;BME280;49654;51.142;14.924;2023-02-04T01:08:04;99421.91;;;2.95;85.05
63500;BME280;49654;51.142;14.924;2023-02-04T01:10:31;99418.81;;;2.80;84.22
63500;BME280;49654;51.142;14.924;2023-02-04T01:12:58;99445.16;;;2.71;84.50
63500;BME280;49654;51.142;14.924;2023-02-04T01:15:25;99432.69;;;2.66;84.72
63500;BME280;49654;51.142;14.924;2023-02-04T01:17:52;99410.09;;;2.38;84.17
63500;BME280;49654;51.142;14.924;2023-02-04T01:20:19;99459.03;;;2.68;84.20
63500;BME280;49654;51.142;14.924;2023-02-04T01:22:46;99450.28;;;2.71;84.26
63500;BME280;49654;51.142;14.924;2023-02-04T01:25:14;99471.63;;;2.83;83.67
63500;BME280;49654;51.142;14.924;2023-02-04T01:27:42;99473.13;;;2.85;83.52
63500;BME280;49654;51.142;14.924;2023-02-04T01:30:10;99491.66;;;2.78;83.05
63500;BME280;49654;51.142;14.924;2023-02-04T01:32:38;99473.94;;;2.52;82.76
63500;BME280;49654;51.142;14.924;2023-02-04T01:35:05;99490.28;;;2.62;81.66
63500;BME280;49654;51.142;14.924;2023-02-04T01:37:32;99450.94;;;2.17;81.03
63500;BME280;49654;51.142;14.924;2023-02-04T01:39:59;99546.91;;;2.82;82.64
63500;BME280;49654;51.142;14.924;2023-02-04T01:42:28;99543.66;;;2.80;83.02
63500;BME280;49654;51.142;14.924;2023-02-04T01:44:55;99561.41;;;2.83;81.96
63500;BME280;49654;51.142;14.924;2023-02-04T01:47:22;99573.03;;;2.87;82.15
63500;BME280;49654;51.142;14.924;2023-02-04T01:49:52;99589.16;;;3.00;81.96
63500;BME280;49654;51.142;14.924;2023-02-04T01:52:20;99602.44;;;2.94;81.51
63500;BME280;49654;51.142;14.924;2023-02-04T01:54:47;99536.38;;;2.51;80.32
63500;BME280;49654;51.142;14.924;2023-02-04T01:57:15;99630.66;;;2.94;80.64
63500;BME280;49654;51.142;14.924;2023-02-04T01:59:45;99644.72;;;2.77;80.50
63500;BME280;49654;51.142;14.924;2023-02-04T02:02:41;99658.03;;;2.82;80.33
63500;BME280;49654;51.142;14.924;2023-02-04T02:05:12;99671.44;;;2.74;79.07
63500;BME280;49654;51.142;14.924;2023-02-04T02:07:40;99656.53;;;2.56;78.21
63500;BME280;49654;51.142;14.924;2023-02-04T02:10:09;99686.72;;;2.52;78.22
63500;BME280;49654;51.142;14.924;2023-02-04T02:12:37;99697.78;;;2.53;78.12
63500;BME280;49654;51.142;14.924;2023-02-04T02:15:07;99713.78;;;2.56;77.43
63500;BME280;49654;51.142;14.924;2023-02-04T02:17:34;99723.94;;;2.58;77.35
63500;BME280;49654;51.142;14.924;2023-02-04T02:20:02;99733.63;;;2.41;77.47
63500;BME280;49654;51.142;14.924;2023-02-04T02:22:32;99753.22;;;2.42;77.42
63500;BME280;49654;51.142;14.924;2023-02-04T02:25:08;99755.03;;;2.53;77.39
63500;BME280;49654;51.142;14.924;2023-02-04T02:27:35;99754.06;;;2.30;76.64
63500;BME280;49654;51.142;14.924;2023-02-04T02:30:03;99741.28;;;2.17;77.87
63500;BME280;49654;51.142;14.924;2023-02-04T02:32:30;99781.94;;;2.35;77.08
63500;BME280;49654;51.142;14.924;2023-02-04T02:34:57;99777.03;;;2.32;76.91
63500;BME280;49654;51.142;14.924;2023-02-04T02:37:24;99806.72;;;2.47;77.11
63500;BME280;49654;51.142;14.924;2023-02-04T02:39:51;99811.22;;;2.43;76.68
63500;BME280;49654;51.142;14.924;2023-02-04T02:42:20;99820.31;;;2.23;77.28
63500;BME280;49654;51.142;14.924;2023-02-04T02:44:47;99776.34;;;2.17;78.11
63500;BME280;49654;51.142;14.924;2023-02-04T02:47:18;99824.16;;;2.42;77.96
63500;BME280;49654;51.142;14.924;2023-02-04T02:49:46;99853.81;;;2.33;77.18
63500;BME280;49654;51.142;14.924;2023-02-04T02:52:14;99844.50;;;2.19;76.54
63500;BME280;49654;51.142;14.924;2023-02-04T02:54:42;99871.34;;;2.26;76.86
63500;BME280;49654;51.142;14.924;2023-02-04T02:57:11;99866.75;;;2.32;76.93
63500;BME280;49654;51.142;14.924;2023-02-04T02:59:40;99867.06;;;2.14;75.81
63500;BME280;49654;51.142;14.924;2023-02-04T03:02:10;99880.16;;;1.97;73.64
63500;BME280;49654;51.142;14.924;2023-02-04T03:04:42;99879.03;;;2.01;75.34
63500;BME280;49654;51.142;14.924;2023-02-04T03:07:11;99918.00;;;2.32;75.87
63500;BME280;49654;51.142;14.924;2023-02-04T03:09:38;99915.22;;;2.35;75.46
63500;BME280;49654;51.142;14.924;2023-02-04T03:12:05;99939.63;;;2.15;74.74
63500;BME280;49654;51.142;14.924;2023-02-04T03:14:32;99959.91;;;2.31;75.61
63500;BME280;49654;51.142;14.924;2023-02-04T03:17:01;99947.00;;;2.07;74.61
63500;BME280;49654;51.142;14.924;2023-02-04T03:19:30;99848.31;;;1.23;73.50
63500;BME280;49654;51.142;14.924;2023-02-04T03:21:58;99940.50;;;1.88;72.67
63500;BME280;49654;51.142;14.924;2023-02-04T03:24:26;99964.53;;;2.13;72.43
63500;BME280;49654;51.142;14.924;2023-02-04T03:26:53;99978.38;;;2.10;72.52
63500;BME280;49654;51.142;14.924;2023-02-04T03:29:19;100003.69;;;2.15;72.34
63500;BME280;49654;51.142;14.924;2023-02-04T03:31:46;99968.69;;;1.88;71.70
63500;BME280;49654;51.142;14.924;2023-02-04T03:34:15;100034.78;;;2.36;71.95
63500;BME280;49654;51.142;14.924;2023-02-04T03:36:42;99993.53;;;2.13;72.16
63500;BME280;49654;51.142;14.924;2023-02-04T03:39:09;100046.69;;;2.37;70.90
63500;BME280;49654;51.142;14.924;2023-02-04T03:41:35;100034.16;;;2.32;72.35
63500;BME280;49654;51.142;14.924;2023-02-04T03:44:03;100059.81;;;2.32;72.31
63500;BME280;49654;51.142;14.924;2023-02-04T03:46:30;100047.75;;;2.07;71.69
63500;BME280;49654;51.142;14.924;2023-02-04T03:48:57;100069.50;;;2.14;72.15
63500;BME280;49654;51.142;14.924;2023-02-04T03:51:25;100086.63;;;2.26;71.49
63500;BME280;49654;51.142;14.924;2023-02-04T03:53:52;100094.25;;;2.41;71.70
63500;BME280;49654;51.142;14.924;2023-02-04T03:56:19;100095.09;;;2.02;70.39
63500;BME280;49654;51.142;14.924;2023-02-04T03:58:46;100121.28;;;2.19;71.66
63500;BME280;49654;51.142;14.924;2023-02-04T04:01:12;100134.16;;;2.18;71.32
63500;BME280;49654;51.142;14.924;2023-02-04T04:03:39;100113.00;;;2.02;71.83
63500;BME280;49654;51.142;14.924;2023-02-04T04:06:06;100116.47;;;2.00;70.69
63500;BME280;49654;51.142;14.924;2023-02-04T04:08:37;100118.56;;;2.08;70.80
63500;BME280;49654;51.142;14.924;2023-02-04T04:11:04;100154.72;;;2.31;70.53
63500;BME280;49654;51.142;14.924;2023-02-04T04:13:31;100172.31;;;2.22;70.55
63500;BME280;49654;51.142;14.924;2023-02-04T04:15:58;100175.84;;;2.34;70.50
63500;BME280;49654;51.142;14.924;2023-02-04T04:18:25;100181.47;;;2.54;71.19
63500;BME280;49654;51.142;14.924;2023-02-04T04:20:52;100125.13;;;2.12;70.80
63500;BME280;49654;51.142;14.924;2023-02-04T04:23:19;100207.59;;;2.46;71.20
63500;BME280;49654;51.142;14.924;2023-02-04T04:25:47;100171.38;;;2.11;69.62
63500;BME280;49654;51.142;14.924;2023-02-04T04:28:14;100210.00;;;2.35;70.28
63500;BME280;49654;51.142;14.924;2023-02-04T04:30:41;100211.22;;;2.29;69.63
63500;BME280;49654;51.142;14.924;2023-02-04T04:33:08;100170.03;;;2.18;71.34
63500;BME280;49654;51.142;14.924;2023-02-04T04:35:35;100224.78;;;2.44;71.79
63500;BME280;49654;51.142;14.924;2023-02-04T04:38:02;100185.97;;;2.23;72.56
63500;BME280;49654;51.142;14.924;2023-02-04T04:40:29;100213.53;;;2.19;71.27
63500;BME280;49654;51.142;14.924;2023-02-04T04:42:57;100217.06;;;2.31;71.86
63500;BME280;49654;51.142;14.924;2023-02-04T04:45:24;100195.81;;;2.02;70.58
63500;BME280;49654;51.142;14.924;2023-02-04T04:47:51;100257.66;;;2.51;71.62
63500;BME280;49654;51.142;14.924;2023-02-04T04:50:18;100208.13;;;2.24;72.13
63500;BME280;49654;51.142;14.924;2023-02-04T04:52:45;100286.94;;;2.62;71.88
63500;BME280;49654;51.142;14.924;2023-02-04T04:55:13;100272.38;;;2.21;71.81
63500;BME280;49654;51.142;14.924;2023-02-04T04:57:40;100260.47;;;2.20;72.72
63500;BME280;49654;51.142;14.924;2023-02-04T05:00:14;100307.16;;;2.25;72.26
63500;BME280;49654;51.142;14.924;2023-02-04T05:02:41;100297.22;;;2.06;73.30
63500;BME280;49654;51.142;14.924;2023-02-04T05:05:08;100322.19;;;2.03;73.58
63500;BME280;49654;51.142;14.924;2023-02-04T05:07:35;100265.16;;;1.70;73.30
63500;BME280;49654;51.142;14.924;2023-02-04T05:10:03;100282.38;;;1.83;74.00
63500;BME280;49654;51.142;14.924;2023-02-04T05:12:31;100269.13;;;1.76;72.95
63500;BME280;49654;51.142;14.924;2023-02-04T05:14:58;100320.25;;;2.20;73.25
63500;BME280;49654;51.142;14.924;2023-02-04T05:17:26;100329.97;;;2.15;72.39
63500;BME280;49654;51.142;14.924;2023-02-04T05:19:53;100307.25;;;1.81;73.57
63500;BME280;49654;51.142;14.924;2023-02-04T05:22:20;100313.91;;;1.55;73.09
63500;BME280;49654;51.142;14.924;2023-02-04T05:24:47;100354.88;;;1.55;73.41
63500;BME280;49654;51.142;14.924;2023-02-04T05:27:13;100338.47;;;1.43;73.31
63500;BME280;49654;51.142;14.924;2023-02-04T05:29:40;100300.19;;;0.95;72.51
63500;BME280;49654;51.142;14.924;2023-02-04T05:32:07;100362.50;;;1.40;74.45
63500;BME280;49654;51.142;14.924;2023-02-04T05:34:35;100375.38;;;1.39;73.18
63500;BME280;49654;51.142;14.924;2023-02-04T05:37:02;100388.75;;;1.28;74.69
63500;BME280;49654;51.142;14.924;2023-02-04T05:39:29;100356.63;;;1.08;74.89
63500;BME280;49654;51.142;14.924;2023-02-04T05:41:56;100386.00;;;1.17;74.67
63500;BME280;49654;51.142;14.924;2023-02-04T05:44:23;100376.22;;;1.23;74.41
63500;BME280;49654;51.142;14.924;2023-02-04T05:46:50;100339.94;;;1.17;74.50
63500;BME280;49654;51.142;14.924;2023-02-04T05:49:17;100419.03;;;1.82;74.02
63500;BME280;49654;51.142;14.924;2023-02-04T05:51:45;100432.13;;;1.91;73.66
63500;BME280;49654;51.142;14.924;2023-02-04T05:54:12;100416.78;;;1.91;73.42
63500;BME280;49654;51.142;14.924;2023-02-04T05:56:44;100447.69;;;1.88;73.19
63500;BME280;49654;51.142;14.924;2023-02-04T05:59:11;100449.66;;;1.69;73.37
63500;BME280;49654;51.142;14.924;2023-02-04T06:01:38;100465.06;;;1.83;73.59
63500;BME280;49654;51.142;14.924;2023-02-04T06:04:05;100473.69;;;1.96;73.64
63500;BME280;49654;51.142;14.924;2023-02-04T06:06:32;100473.38;;;1.87;73.16
63500;BME280;49654;51.142;14.924;2023-02-04T06:09:00;100489.25;;;1.93;73.50
63500;BME280;49654;51.142;14.924;2023-02-04T06:11:27;100494.28;;;1.95;73.03
63500;BME280;49654;51.142;14.924;2023-02-04T06:13:54;100477.69;;;1.86;72.89
63500;BME280;49654;51.142;14.924;2023-02-04T06:16:21;100477.78;;;1.85;73.14
63500;BME280;49654;51.142;14.924;2023-02-04T06:18:48;100505.97;;;1.85;72.71
63500;BME280;49654;51.142;14.924;2023-02-04T06:21:15;100513.06;;;1.80;72.85
63500;BME280;49654;51.142;14.924;2023-02-04T06:23:43;100485.75;;;1.33;73.39
63500;BME280;49654;51.142;14.924;2023-02-04T06:26:11;100472.41;;;0.96;74.37
63500;BME280;49654;51.142;14.924;2023-02-04T06:28:38;100534.47;;;1.15;75.95
63500;BME280;49654;51.142;14.924;2023-02-04T06:31:05;100497.88;;;0.82;75.74
63500;BME280;49654;51.142;14.924;2023-02-04T06:33:34;100459.16;;;0.72;76.19
63500;BME280;49654;51.142;14.924;2023-02-04T06:36:01;100490.72;;;1.04;76.84
63500;BME280;49654;51.142;14.924;2023-02-04T06:38:28;100564.97;;;1.52;76.09
63500;BME280;49654;51.142;14.924;2023-02-04T06:40:55;100565.47;;;1.42;76.24
63500;BME280;49654;51.142;14.924;2023-02-04T06:43:23;100485.41;;;0.75;76.00
63500;BME280;49654;51.142;14.924;2023-02-04T06:45:52;100464.69;;;0.64;76.79
63500;BME280;49654;51.142;14.924;2023-02-04T06:48:19;100580.47;;;1.33;76.44
63500;BME280;49654;51.142;14.924;2023-02-04T06:50:46;100470.09;;;0.58;76.14
63500;BME280;49654;51.142;14.924;2023-02-04T06:53:13;100595.56;;;1.21;75.93
63500;BME280;49654;51.142;14.924;2023-02-04T06:55:40;100548.28;;;0.62;77.42
63500;BME280;49654;51.142;14.924;2023-02-04T06:58:07;100608.88;;;0.95;78.08
63500;BME280;49654;51.142;14.924;2023-02-04T07:00:35;100526.06;;;0.30;77.98
63500;BME280;49654;51.142;14.924;2023-02-04T07:03:02;100585.97;;;0.59;78.30
63500;BME280;49654;51.142;14.924;2023-02-04T07:05:29;100567.84;;;0.46;78.39
63500;BME280;49654;51.142;14.924;2023-02-04T07:07:56;100601.44;;;0.56;78.54
63500;BME280;49654;51.142;14.924;2023-02-04T07:10:23;100544.16;;;0.08;78.17
63500;BME280;49654;51.142;14.924;2023-02-04T07:12:50;100645.31;;;0.65;78.72
63500;BME280;49654;51.142;14.924;2023-02-04T07:15:17;100576.66;;;0.23;78.83
63500;BME280;49654;51.142;14.924;2023-02-04T07:17:45;100628.44;;;0.44;78.89
63500;BME280;49654;51.142;14.924;2023-02-04T07:20:12;100655.75;;;0.61;79.07
63500;BME280;49654;51.142;14.924;2023-02-04T07:22:39;100660.78;;;0.80;78.94
63500;BME280;49654;51.142;14.924;2023-02-04T07:25:07;100601.97;;;0.45;78.49
63500;BME280;49654;51.142;14.924;2023-02-04T07:27:34;100596.66;;;0.49;78.25
63500;BME280;49654;51.142;14.924;2023-02-04T07:30:02;100614.63;;;0.65;78.15
63500;BME280;49654;51.142;14.924;2023-02-04T07:32:28;100615.31;;;0.69;77.58
63500;BME280;49654;51.142;14.924;2023-02-04T07:34:59;100692.81;;;1.21;77.80
63500;BME280;49654;51.142;14.924;2023-02-04T07:37:26;100628.16;;;1.18;76.63
63500;BME280;49654;51.142;14.924;2023-02-04T07:39:53;100684.91;;;1.59;75.98
63500;BME280;49654;51.142;14.924;2023-02-04T07:42:20;100694.97;;;1.62;75.89
63500;BME280;49654;51.142;14.924;2023-02-04T07:44:47;100695.41;;;1.70;74.77
63500;BME280;49654;51.142;14.924;2023-02-04T07:47:14;100660.47;;;1.36;74.39
63500;BME280;49654;51.142;14.924;2023-02-04T07:49:41;100717.03;;;1.98;74.49
63500;BME280;49654;51.142;14.924;2023-02-04T07:52:09;100718.69;;;1.99;73.04
63500;BME280;49654;51.142;14.924;2023-02-04T07:54:37;100677.97;;;1.61;73.73
63500;BME280;49654;51.142;14.924;2023-02-04T07:57:03;100709.66;;;2.08;72.93
63500;BME280;49654;51.142;14.924;2023-02-04T07:59:30;100708.44;;;1.99;72.89
63500;BME280;49654;51.142;14.924;2023-02-04T08:01:57;100680.38;;;1.64;73.71
63500;BME280;49654;51.142;14.924;2023-02-04T08:04:26;100662.75;;;1.58;73.17
63500;BME280;49654;51.142;14.924;2023-02-04T08:06:53;100725.91;;;1.75;73.57
63500;BME280;49654;51.142;14.924;2023-02-04T08:09:21;100662.03;;;1.23;74.43
63500;BME280;49654;51.142;14.924;2023-02-04T08:11:48;100721.09;;;1.69;74.74
63500;BME280;49654;51.142;14.924;2023-02-04T08:14:15;100602.81;;;1.13;74.54
63500;BME280;49654;51.142;14.924;2023-02-04T08:16:42;100717.19;;;1.95;72.38
63500;BME280;49654;51.142;14.924;2023-02-04T08:19:09;100736.13;;;2.08;73.56
63500;BME280;49654;51.142;14.924;2023-02-04T08:21:37;100726.69;;;2.24;72.79
63500;BME280;49654;51.142;14.924;2023-02-04T08:24:13;100723.16;;;2.27;70.59
63500;BME280;49654;51.142;14.924;2023-02-04T08:26:43;100718.00;;;2.59;71.91
63500;BME280;49654;51.142;14.924;2023-02-04T08:29:10;100750.53;;;2.88;70.15
63500;BME280;49654;51.142;14.924;2023-02-04T08:31:37;100691.16;;;2.64;69.54
63500;BME280;49654;51.142;14.924;2023-02-04T08:34:05;100670.84;;;3.06;67.91
63500;BME280;49654;51.142;14.924;2023-02-04T08:36:32;100727.47;;;3.75;67.94
63500;BME280;49654;51.142;14.924;2023-02-04T08:38:59;100745.03;;;4.24;65.01
63500;BME280;49654;51.142;14.924;2023-02-04T08:41:26;100765.25;;;4.16;64.20
63500;BME280;49654;51.142;14.924;2023-02-04T08:43:56;100742.31;;;4.13;66.01
63500;BME280;49654;51.142;14.924;2023-02-04T08:46:23;100712.69;;;4.74;64.42
63500;BME280;49654;51.142;14.924;2023-02-04T08:48:49;100757.94;;;5.44;60.48
63500;BME280;49654;51.142;14.924;2023-02-04T08:51:16;100786.06;;;4.40;61.38
63500;BME280;49654;51.142;14.924;2023-02-04T08:53:44;100777.09;;;4.33;63.43
63500;BME280;49654;51.142;14.924;2023-02-04T08:56:11;100785.25;;;4.94;63.11
63500;BME280;49654;51.142;14.924;2023-02-04T08:58:43;100781.03;;;6.09;60.08
63500;BME280;49654;51.142;14.924;2023-02-04T09:01:11;100783.09;;;5.78;58.84
63500;BME280;49654;51.142;14.924;2023-02-04T09:03:38;100793.53;;;5.12;61.13
63500;BME280;49654;51.142;14.924;2023-02-04T09:06:06;100778.03;;;4.86;60.45
63500;BME280;49654;51.142;14.924;2023-02-04T09:08:33;100794.69;;;4.81;60.56
63500;BME280;49654;51.142;14.924;2023-02-04T09:11:00;100802.94;;;4.59;60.50
63500;BME280;49654;51.142;14.924;2023-02-04T09:13:27;100806.75;;;4.39;63.50
63500;BME280;49654;51.142;14.924;2023-02-04T09:15:54;100804.94;;;4.12;64.47
63500;BME280;49654;51.142;14.924;2023-02-04T09:18:22;100810.50;;;3.76;64.59
63500;BME280;49654;51.142;14.924;2023-02-04T09:20:51;100808.69;;;3.34;65.63
63500;BME280;49654;51.142;14.924;2023-02-04T09:23:18;100813.09;;;3.32;66.84
63500;BME280;49654;51.142;14.924;2023-02-04T09:25:45;100817.41;;;3.31;66.34
63500;BME280;49654;51.142;14.924;2023-02-04T09:28:13;100798.47;;;3.62;66.31
63500;BME280;49654;51.142;14.924;2023-02-04T09:30:44;100825.69;;;3.50;64.80
63500;BME280;49654;51.142;14.924;2023-02-04T09:33:13;100820.81;;;3.32;65.29
63500;BME280;49654;51.142;14.924;2023-02-04T09:35:42;100839.53;;;3.78;65.84
63500;BME280;49654;51.142;14.924;2023-02-04T09:38:10;100840.75;;;4.01;65.00
63500;BME280;49654;51.142;14.924;2023-02-04T09:40:41;100849.91;;;4.19;64.60
63500;BME280;49654;51.142;14.924;2023-02-04T09:43:11;100827.56;;;4.48;63.93
63500;BME280;49654;51.142;14.924;2023-02-04T09:45:39;100852.97;;;4.26;63.05
63500;BME280;49654;51.142;14.924;2023-02-04T09:48:08;100858.81;;;4.57;63.52
63500;BME280;49654;51.142;14.924;2023-02-04T09:50:37;100857.69;;;4.61;62.69
63500;BME280;49654;51.142;14.924;2023-02-04T09:53:06;100861.94;;;4.05;64.29
63500;BME280;49654;51.142;14.924;2023-02-04T09:55:37;100854.84;;;3.94;64.22
63500;BME280;49654;51.142;14.924;2023-02-04T09:58:07;100867.72;;;4.37;64.14
63500;BME280;49654;51.142;14.924;2023-02-04T10:00:37;100852.56;;;3.89;63.20
63500;BME280;49654;51.142;14.924;2023-02-04T10:03:12;100873.97;;;4.18;63.16
63500;BME280;49654;51.142;14.924;2023-02-04T10:05:40;100870.88;;;4.42;63.53
63500;BME280;49654;51.142;14.924;2023-02-04T10:08:11;100872.59;;;4.27;62.90
63500;BME280;49654;51.142;14.924;2023-02-04T10:10:39;100872.03;;;4.36;63.19
63500;BME280;49654;51.142;14.924;2023-02-04T10:13:12;100869.72;;;4.60;62.73
63500;BME280;49654;51.142;14.924;2023-02-04T10:15:40;100875.13;;;4.70;62.73
63500;BME280;49654;51.142;14.924;2023-02-04T10:18:07;100876.72;;;4.58;62.78
63500;BME280;49654;51.142;14.924;2023-02-04T10:20:34;100873.31;;;4.58;63.05
63500;BME280;49654;51.142;14.924;2023-02-04T10:23:01;100877.78;;;4.83;62.90
63500;BME280;49654;51.142;14.924;2023-02-04T10:25:29;100880.41;;;4.95;61.94
63500;BME280;49654;51.142;14.924;2023-02-04T10:27:58;100884.66;;;4.82;60.98
63500;BME280;49654;51.142;14.924;2023-02-04T10:30:27;100880.47;;;5.08;60.75
63500;BME280;49654;51.142;14.924;2023-02-04T10:32:58;100885.28;;;4.59;61.08
63500;BME280;49654;51.142;14.924;2023-02-04T10:35:25;100894.19;;;4.10;62.54
63500;BME280;49654;51.142;14.924;2023-02-04T10:38:02;100895.19;;;4.36;62.82
63500;BME280;49654;51.142;14.924;2023-02-04T10:40:32;100904.31;;;4.42;61.17
63500;BME280;49654;51.142;14.924;2023-02-04T10:43:06;100894.72;;;4.15;59.78
63500;BME280;49654;51.142;14.924;2023-02-04T10:45:35;100907.78;;;4.26;61.97
63500;BME280;49654;51.142;14.924;2023-02-04T10:48:03;100895.50;;;4.46;61.68
63500;BME280;49654;51.142;14.924;2023-02-04T10:50:29;100900.44;;;4.63;61.90
63500;BME280;49654;51.142;14.924;2023-02-04T10:52:58;100903.63;;;5.22;60.36
63500;BME280;49654;51.142;14.924;2023-02-04T10:55:41;100894.63;;;5.55;58.86
63500;BME280;49654;51.142;14.924;2023-02-04T10:58:09;100916.69;;;5.59;58.27
63500;BME280;49654;51.142;14.924;2023-02-04T11:00:37;100914.22;;;5.03;57.01
63500;BME280;49654;51.142;14.924;2023-02-04T11:03:09;100913.88;;;4.54;60.08
63500;BME280;49654;51.142;14.924;2023-02-04T11:05:37;100923.69;;;4.33;59.57
63500;BME280;49654;51.142;14.924;2023-02-04T11:08:19;100913.66;;;4.71;58.79
63500;BME280;49654;51.142;14.924;2023-02-04T11:10:50;100910.19;;;4.99;59.25
63500;BME280;49654;51.142;14.924;2023-02-04T11:13:22;100906.91;;;4.97;58.33
63500;BME280;49654;51.142;14.924;2023-02-04T11:16:05;100915.94;;;5.17;59.54
63500;BME280;49654;51.142;14.924;2023-02-04T11:18:43;100916.38;;;5.24;58.99
63500;BME280;49654;51.142;14.924;2023-02-04T11:21:14;100901.97;;;5.61;57.61
63500;BME280;49654;51.142;14.924;2023-02-04T11:23:41;100917.19;;;5.51;57.27
63500;BME280;49654;51.142;14.924;2023-02-04T11:26:13;100917.09;;;5.26;58.86
63500;BME280;49654;51.142;14.924;2023-02-04T11:28:49;100927.63;;;5.09;58.80
63500;BME280;49654;51.142;14.924;2023-02-04T11:31:27;100930.69;;;5.01;59.71
63500;BME280;49654;51.142;14.924;2023-02-04T11:34:10;100926.75;;;4.95;58.23
63500;BME280;49654;51.142;14.924;2023-02-04T11:39:38;100933.06;;;4.48;58.52
63500;BME280;49654;51.142;14.924;2023-02-04T11:42:16;100937.47;;;4.61;59.36
63500;BME280;49654;51.142;14.924;2023-02-04T11:44:47;100941.41;;;4.81;59.00
63500;BME280;49654;51.142;14.924;2023-02-04T11:47:14;100938.22;;;5.04;58.49
63500;BME280;49654;51.142;14.924;2023-02-04T11:49:42;100942.78;;;5.27;58.50
63500;BME280;49654;51.142;14.924;2023-02-04T11:52:12;100944.44;;;5.28;58.97
63500;BME280;49654;51.142;14.924;2023-02-04T11:54:39;100947.03;;;5.68;59.17
63500;BME280;49654;51.142;14.924;2023-02-04T11:57:11;100942.94;;;5.51;57.52
63500;BME280;49654;51.142;14.924;2023-02-04T11:59:38;100944.66;;;6.18;57.33
63500;BME280;49654;51.142;14.924;2023-02-04T12:02:12;100938.34;;;6.60;54.90
63500;BME280;49654;51.142;14.924;2023-02-04T12:04:50;100948.06;;;6.31;55.38
63500;BME280;49654;51.142;14.924;2023-02-04T12:07:22;100944.75;;;6.03;58.33
63500;BME280;49654;51.142;14.924;2023-02-04T12:09:49;100948.94;;;5.52;56.81
63500;BME280;49654;51.142;14.924;2023-02-04T12:12:24;100946.28;;;4.57;57.39
63500;BME280;49654;51.142;14.924;2023-02-04T12:15:01;100945.34;;;4.58;58.59
63500;BME280;49654;51.142;14.924;2023-02-04T12:17:28;100930.72;;;4.15;58.24
63500;BME280;49654;51.142;14.924;2023-02-04T12:19:56;100953.94;;;3.99;59.49
63500;BME280;49654;51.142;14.924;2023-02-04T12:22:22;100937.63;;;3.70;58.90
63500;BME280;49654;51.142;14.924;2023-02-04T12:24:49;100965.75;;;3.58;60.67
63500;BME280;49654;51.142;14.924;2023-02-04T12:27:17;100971.72;;;3.42;61.40
63500;BME280;49654;51.142;14.924;2023-02-04T12:29:46;100953.56;;;3.61;62.16
63500;BME280;49654;51.142;14.924;2023-02-04T12:32:14;100959.50;;;4.22;62.14
63500;BME280;49654;51.142;14.924;2023-02-04T12:34:40;100953.91;;;4.58;59.32
63500;BME280;49654;51.142;14.924;2023-02-04T12:37:07;100952.09;;;5.43;57.42
63500;BME280;49654;51.142;14.924;2023-02-04T12:39:34;100961.16;;;5.36;54.95
63500;BME280;49654;51.142;14.924;2023-02-04T12:42:01;100959.06;;;5.55;55.66
63500;BME280;49654;51.142;14.924;2023-02-04T12:44:29;100959.81;;;5.43;55.23
63500;BME280;49654;51.142;14.924;2023-02-04T12:46:57;100954.28;;;5.22;55.69
63500;BME280;49654;51.142;14.924;2023-02-04T12:49:24;100965.31;;;4.97;56.22
63500;BME280;49654;51.142;14.924;2023-02-04T12:51:51;100960.75;;;5.42;56.16
63500;BME280;49654;51.142;14.924;2023-02-04T12:54:18;100958.59;;;5.21;57.13
63500;BME280;49654;51.142;14.924;2023-02-04T12:56:45;100956.03;;;4.66;54.58
63500;BME280;49654;51.142;14.924;2023-02-04T12:59:14;100961.91;;;4.53;56.69
63500;BME280;49654;51.142;14.924;2023-02-04T13:01:40;100950.59;;;4.27;55.75